sensor_id;sensor_type;location;lat;lon;timestamp;temperature;humidity
62991;DHT22;49084;48.204;16.202;2023-10-13T00:01:57;15.10;99.90
62991;DHT22;49084;48.204;16.202;2023-10-13T00:04:25;15.10;99.90
62991;DHT22;49084;48.204;16.202;2023-10-13T00:06:51;15.00;99.90
62991;DHT22;49084;48.204;16.202;2023-10-13T00:09:18;15.00;99.90
62991;DHT22;49084;48.204;16.202;2023-10-13T00:11:45;15.00;99.90
62991;DHT22;49084;48.204;16.202;2023-10-13T00:14:12;15.00;99.90
62991;DHT22;49084;48.204;16.202;2023-10-13T00:16:43;15.00;99.90
62991;DHT22;49084;48.204;16.202;2023-10-13T00:19:27;14.90;99.90
62991;DHT22;49084;48.204;16.202;2023-10-13T00:21:53;14.90;99.90
62991;DHT22;49084;48.204;16.202;2023-10-13T00:24:21;14.90;99.90
62991;DHT22;49084;48.204;16.202;2023-10-13T00:26:48;14.90;99.90
62991;DHT22;49084;48.204;16.202;2023-10-13T00:29:15;14.90;99.90
62991;DHT22;49084;48.204;16.202;2023-10-13T00:31:43;14.90;99.90
62991;DHT22;49084;48.204;16.202;2023-10-13T00:34:14;14.90;99.90
62991;DHT22;49084;48.204;16.202;2023-10-13T00:36:46;14.90;99.90
62991;DHT22;49084;48.204;16.202;2023-10-13T00:39:35;14.90;99.90
62991;DHT22;49084;48.204;16.202;2023-10-13T00:42:09;14.90;99.90
62991;DHT22;49084;48.204;16.202;2023-10-13T00:44:44;14.90;99.90
62991;DHT22;49084;48.204;16.202;2023-10-13T00:47:15;14.90;99.90
62991;DHT22;49084;48.204;16.202;2023-10-13T00:49:46;14.90;99.90
62991;DHT22;49084;48.204;16.202;2023-10-13T00:52:14;14.80;99.90
62991;DHT22;49084;48.204;16.202;2023-10-13T00:54:42;14.80;99.90
62991;DHT22;49084;48.204;16.202;2023-10-13T00:57:13;14.80;99.90
62991;DHT22;49084;48.204;16.202;2023-10-13T01:00:06;14.80;99.90
62991;DHT22;49084;48.204;16.202;2023-10-13T01:02:46;14.80;99.90
62991;DHT22;49084;48.204;16.202;2023-10-13T01:05:22;14.70;99.90
62991;DHT22;49084;48.204;16.202;2023-10-13T01:07:49;14.70;99.90
62991;DHT22;49084;48.204;16.202;2023-10-13T01:10:18;14.70;99.90
62991;DHT22;49084;48.204;16.202;2023-10-13T01:12:45;14.70;99.90
62991;DHT22;49084;48.204;16.202;2023-10-13T01:15:18;14.70;99.90
62991;DHT22;49084;48.204;16.202;2023-10-13T01:17:46;14.70;99.90
62991;DHT22;49084;48.204;16.202;2023-10-13T01:20:15;14.70;99.90
62991;DHT22;49084;48.204;16.202;2023-10-13T01:22:51;14.70;99.90
62991;DHT22;49084;48.204;16.202;2023-10-13T01:25:24;14.70;99.90
62991;DHT22;49084;48.204;16.202;2023-10-13T01:27:53;14.70;99.90
62991;DHT22;49084;48.204;16.202;2023-10-13T01:30:19;14.60;99.90
62991;DHT22;49084;48.204;16.202;2023-10-13T01:32:52;14.60;99.90
62991;DHT22;49084;48.204;16.202;2023-10-13T01:35:19;14.60;99.90
62991;DHT22;49084;48.204;16.202;2023-10-13T01:37:51;14.60;99.90
62991;DHT22;49084;48.204;16.202;2023-10-13T01:40:16;14.60;99.90
62991;DHT22;49084;48.204;16.202;2023-10-13T01:42:46;14.70;99.90
62991;DHT22;49084;48.204;16.202;2023-10-13T01:45:12;14.70;99.90
62991;DHT22;49084;48.204;16.202;2023-10-13T01:47:39;14.70;99.90
62991;DHT22;49084;48.204;16.202;2023-10-13T01:50:06;14.70;99.90
62991;DHT22;49084;48.204;16.202;2023-10-13T01:52:39;14.70;99.90
62991;DHT22;49084;48.204;16.202;2023-10-13T01:55:07;14.70;99.90
62991;DHT22;49084;48.204;16.202;2023-10-13T01:57:35;14.70;99.90
62991;DHT22;49084;48.204;16.202;2023-10-13T02:00:01;14.70;99.90
62991;DHT22;49084;48.204;16.202;2023-10-13T02:02:36;14.70;99.90
62991;DHT22;49084;48.204;16.202;2023-10-13T02:05:10;14.70;99.90
62991;DHT22;49084;48.204;16.202;2023-10-13T02:07:35;14.60;99.90
62991;DHT22;49084;48.204;16.202;2023-10-13T02:10:04;14.60;99.90
62991;DHT22;49084;48.204;16.202;2023-10-13T02:12:31;14.60;99.90
62991;DHT22;49084;48.204;16.202;2023-10-13T02:15:23;14.70;99.90
62991;DHT22;49084;48.204;16.202;2023-10-13T02:17:52;14.70;99.90
62991;DHT22;49084;48.204;16.202;2023-10-13T02:20:20;14.70;99.90
62991;DHT22;49084;48.204;16.202;2023-10-13T02:22:51;14.60;99.90
62991;DHT22;49084;48.204;16.202;2023-10-13T02:25:18;14.60;99.90
62991;DHT22;49084;48.204;16.202;2023-10-13T02:28:01;14.60;99.90
62991;DHT22;49084;48.204;16.202;2023-10-13T02:30:27;14.60;99.90
62991;DHT22;49084;48.204;16.202;2023-10-13T02:32:52;14.50;99.90
62991;DHT22;49084;48.204;16.202;2023-10-13T02:35:21;14.60;99.90
62991;DHT22;49084;48.204;16.202;2023-10-13T02:37:55;14.50;99.90
62991;DHT22;49084;48.204;16.202;2023-10-13T02:40:23;14.50;99.90
62991;DHT22;49084;48.204;16.202;2023-10-13T02:42:49;14.50;99.90
62991;DHT22;49084;48.204;16.202;2023-10-13T02:45:15;14.40;99.90
62991;DHT22;49084;48.204;16.202;2023-10-13T02:47:40;14.40;99.90
62991;DHT22;49084;48.204;16.202;2023-10-13T02:50:09;14.40;99.90
62991;DHT22;49084;48.204;16.202;2023-10-13T02:52:38;14.40;99.90
62991;DHT22;49084;48.204;16.202;2023-10-13T02:55:07;14.40;99.90
62991;DHT22;49084;48.204;16.202;2023-10-13T02:57:39;14.50;99.90
62991;DHT22;49084;48.204;16.202;2023-10-13T03:00:07;14.40;99.90
62991;DHT22;49084;48.204;16.202;2023-10-13T03:02:38;14.40;99.90
62991;DHT22;49084;48.204;16.202;2023-10-13T03:05:10;14.40;99.90
62991;DHT22;49084;48.204;16.202;2023-10-13T03:07:39;14.40;99.90
62991;DHT22;49084;48.204;16.202;2023-10-13T03:10:09;14.40;99.90
62991;DHT22;49084;48.204;16.202;2023-10-13T03:12:36;14.50;99.90
62991;DHT22;49084;48.204;16.202;2023-10-13T03:15:02;14.50;99.90
62991;DHT22;49084;48.204;16.202;2023-10-13T03:17:40;14.50;99.90
62991;DHT22;49084;48.204;16.202;2023-10-13T03:20:13;14.50;99.90
62991;DHT22;49084;48.204;16.202;2023-10-13T03:22:41;14.50;99.90
62991;DHT22;49084;48.204;16.202;2023-10-13T03:25:13;14.50;99.90
62991;DHT22;49084;48.204;16.202;2023-10-13T03:27:50;14.50;99.90
62991;DHT22;49084;48.204;16.202;2023-10-13T03:30:16;13.10;99.90
62991;DHT22;49084;48.204;16.202;2023-10-13T03:32:43;14.50;99.90
62991;DHT22;49084;48.204;16.202;2023-10-13T03:35:20;14.50;99.90
62991;DHT22;49084;48.204;16.202;2023-10-13T03:38:03;14.50;99.90
62991;DHT22;49084;48.204;16.202;2023-10-13T03:40:29;14.50;99.90
62991;DHT22;49084;48.204;16.202;2023-10-13T03:42:56;14.50;99.90
62991;DHT22;49084;48.204;16.202;2023-10-13T03:48:05;14.50;99.90
62991;DHT22;49084;48.204;16.202;2023-10-13T03:50:41;14.50;99.90
62991;DHT22;49084;48.204;16.202;2023-10-13T03:53:27;14.60;99.90
62991;DHT22;49084;48.204;16.202;2023-10-13T03:55:59;14.60;99.90
62991;DHT22;49084;48.204;16.202;2023-10-13T03:58:35;14.60;99.90
62991;DHT22;49084;48.204;16.202;2023-10-13T04:01:02;14.60;99.90
62991;DHT22;49084;48.204;16.202;2023-10-13T04:03:29;14.60;99.90
62991;DHT22;49084;48.204;16.202;2023-10-13T04:06:00;14.60;99.90
62991;DHT22;49084;48.204;16.202;2023-10-13T04:08:32;14.60;99.90
62991;DHT22;49084;48.204;16.202;2023-10-13T04:11:13;14.60;99.90
62991;DHT22;49084;48.204;16.202;2023-10-13T04:14:05;14.60;99.90
62991;DHT22;49084;48.204;16.202;2023-10-13T04:17:02;14.60;99.90
62991;DHT22;49084;48.204;16.202;2023-10-13T04:19:37;14.70;99.90
62991;DHT22;49084;48.204;16.202;2023-10-13T04:22:23;14.70;99.90
62991;DHT22;49084;48.204;16.202;2023-10-13T04:25:08;14.80;99.90
62991;DHT22;49084;48.204;16.202;2023-10-13T04:27:54;14.80;99.90
62991;DHT22;49084;48.204;16.202;2023-10-13T04:30:46;14.80;99.90
62991;DHT22;49084;48.204;16.202;2023-10-13T04:36:09;14.90;99.90
62991;DHT22;49084;48.204;16.202;2023-10-13T04:38:58;14.90;99.90
62991;DHT22;49084;48.204;16.202;2023-10-13T04:41:30;14.80;99.90
62991;DHT22;49084;48.204;16.202;2023-10-13T04:44:09;14.80;99.90
62991;DHT22;49084;48.204;16.202;2023-10-13T04:46:54;14.80;99.90
62991;DHT22;49084;48.204;16.202;2023-10-13T04:49:34;14.90;99.90
62991;DHT22;49084;48.204;16.202;2023-10-13T04:52:01;14.90;99.90
62991;DHT22;49084;48.204;16.202;2023-10-13T04:54:35;14.80;99.90
62991;DHT22;49084;48.204;16.202;2023-10-13T04:57:23;14.80;99.90
62991;DHT22;49084;48.204;16.202;2023-10-13T04:59:49;14.80;99.90
62991;DHT22;49084;48.204;16.202;2023-10-13T05:02:35;14.70;99.90
62991;DHT22;49084;48.204;16.202;2023-10-13T05:05:13;14.70;99.90
62991;DHT22;49084;48.204;16.202;2023-10-13T05:07:40;14.80;99.90
62991;DHT22;49084;48.204;16.202;2023-10-13T05:10:24;14.70;99.90
62991;DHT22;49084;48.204;16.202;2023-10-13T05:13:13;14.70;99.90
62991;DHT22;49084;48.204;16.202;2023-10-13T05:15:57;14.70;99.90
62991;DHT22;49084;48.204;16.202;2023-10-13T05:18:47;14.70;99.90
62991;DHT22;49084;48.204;16.202;2023-10-13T05:21:31;14.70;99.90
62991;DHT22;49084;48.204;16.202;2023-10-13T05:24:16;14.70;99.90
62991;DHT22;49084;48.204;16.202;2023-10-13T05:27:04;14.70;99.90
62991;DHT22;49084;48.204;16.202;2023-10-13T05:29:48;14.70;99.90
62991;DHT22;49084;48.204;16.202;2023-10-13T05:32:33;14.70;99.90
62991;DHT22;49084;48.204;16.202;2023-10-13T05:35:18;14.70;99.90
62991;DHT22;49084;48.204;16.202;2023-10-13T05:38:03;14.70;99.90
62991;DHT22;49084;48.204;16.202;2023-10-13T05:43:41;14.70;99.90
62991;DHT22;49084;48.204;16.202;2023-10-13T05:46:25;14.80;99.90
62991;DHT22;49084;48.204;16.202;2023-10-13T05:48:52;14.80;99.90
62991;DHT22;49084;48.204;16.202;2023-10-13T05:51:24;14.80;99.90
62991;DHT22;49084;48.204;16.202;2023-10-13T05:54:08;14.80;99.90
62991;DHT22;49084;48.204;16.202;2023-10-13T05:56:54;14.90;99.90
62991;DHT22;49084;48.204;16.202;2023-10-13T05:59:39;14.80;99.90
62991;DHT22;49084;48.204;16.202;2023-10-13T06:02:24;14.90;99.90
62991;DHT22;49084;48.204;16.202;2023-10-13T06:05:10;14.90;99.90
62991;DHT22;49084;48.204;16.202;2023-10-13T06:07:55;14.90;99.90
62991;DHT22;49084;48.204;16.202;2023-10-13T06:10:40;15.00;99.90
62991;DHT22;49084;48.204;16.202;2023-10-13T06:13:24;15.00;99.90
62991;DHT22;49084;48.204;16.202;2023-10-13T06:16:13;15.00;99.90
62991;DHT22;49084;48.204;16.202;2023-10-13T06:18:58;15.10;99.90
62991;DHT22;49084;48.204;16.202;2023-10-13T06:21:43;15.10;99.90
62991;DHT22;49084;48.204;16.202;2023-10-13T06:24:28;15.10;99.90
62991;DHT22;49084;48.204;16.202;2023-10-13T06:27:12;15.20;99.90
62991;DHT22;49084;48.204;16.202;2023-10-13T06:29:57;15.20;99.90
62991;DHT22;49084;48.204;16.202;2023-10-13T06:32:23;15.30;99.90
62991;DHT22;49084;48.204;16.202;2023-10-13T06:35:00;15.30;99.90
62991;DHT22;49084;48.204;16.202;2023-10-13T06:37:44;15.30;99.90
62991;DHT22;49084;48.204;16.202;2023-10-13T06:40:11;15.40;99.90
62991;DHT22;49084;48.204;16.202;2023-10-13T06:42:46;15.50;99.90
62991;DHT22;49084;48.204;16.202;2023-10-13T06:45:12;15.60;99.90
62991;DHT22;49084;48.204;16.202;2023-10-13T06:47:38;15.70;99.90
62991;DHT22;49084;48.204;16.202;2023-10-13T06:50:10;15.90;99.90
62991;DHT22;49084;48.204;16.202;2023-10-13T06:52:45;16.00;99.90
62991;DHT22;49084;48.204;16.202;2023-10-13T06:55:12;16.20;99.90
62991;DHT22;49084;48.204;16.202;2023-10-13T06:57:43;16.20;99.90
62991;DHT22;49084;48.204;16.202;2023-10-13T07:00:10;16.30;99.90
62991;DHT22;49084;48.204;16.202;2023-10-13T07:02:45;16.40;99.90
62991;DHT22;49084;48.204;16.202;2023-10-13T07:05:12;16.50;99.90
62991;DHT22;49084;48.204;16.202;2023-10-13T07:07:40;16.70;99.90
62991;DHT22;49084;48.204;16.202;2023-10-13T07:10:09;16.90;99.90
62991;DHT22;49084;48.204;16.202;2023-10-13T07:12:37;17.00;99.90
62991;DHT22;49084;48.204;16.202;2023-10-13T07:15:04;17.20;99.90
62991;DHT22;49084;48.204;16.202;2023-10-13T07:17:50;17.40;99.90
62991;DHT22;49084;48.204;16.202;2023-10-13T07:20:25;17.70;99.90
62991;DHT22;49084;48.204;16.202;2023-10-13T07:22:53;18.10;99.90
62991;DHT22;49084;48.204;16.202;2023-10-13T07:25:53;18.50;99.90
62991;DHT22;49084;48.204;16.202;2023-10-13T07:28:20;18.90;99.90
62991;DHT22;49084;48.204;16.202;2023-10-13T07:30:46;19.30;99.90
62991;DHT22;49084;48.204;16.202;2023-10-13T07:33:21;19.80;99.90
62991;DHT22;49084;48.204;16.202;2023-10-13T07:35:47;20.10;99.90
62991;DHT22;49084;48.204;16.202;2023-10-13T07:38:16;20.50;99.90
62991;DHT22;49084;48.204;16.202;2023-10-13T07:40:43;20.90;99.90
62991;DHT22;49084;48.204;16.202;2023-10-13T07:43:16;21.20;99.90
62991;DHT22;49084;48.204;16.202;2023-10-13T07:45:47;21.60;99.90
62991;DHT22;49084;48.204;16.202;2023-10-13T07:48:16;22.00;99.90
62991;DHT22;49084;48.204;16.202;2023-10-13T07:51:02;22.20;99.90
62991;DHT22;49084;48.204;16.202;2023-10-13T07:53:35;22.30;99.90
62991;DHT22;49084;48.204;16.202;2023-10-13T07:56:04;22.70;99.90
62991;DHT22;49084;48.204;16.202;2023-10-13T07:58:34;23.00;99.90
62991;DHT22;49084;48.204;16.202;2023-10-13T08:01:01;23.40;99.90
62991;DHT22;49084;48.204;16.202;2023-10-13T08:03:36;23.60;99.90
62991;DHT22;49084;48.204;16.202;2023-10-13T08:06:15;23.90;99.90
62991;DHT22;49084;48.204;16.202;2023-10-13T08:08:41;23.80;99.90
62991;DHT22;49084;48.204;16.202;2023-10-13T08:11:11;24.00;99.90
62991;DHT22;49084;48.204;16.202;2023-10-13T08:13:58;24.10;99.90
62991;DHT22;49084;48.204;16.202;2023-10-13T08:16:37;24.40;99.90
62991;DHT22;49084;48.204;16.202;2023-10-13T08:19:22;24.90;99.90
62991;DHT22;49084;48.204;16.202;2023-10-13T08:22:05;25.00;99.90
62991;DHT22;49084;48.204;16.202;2023-10-13T08:24:46;25.40;99.90
62991;DHT22;49084;48.204;16.202;2023-10-13T08:27:14;25.50;99.90
62991;DHT22;49084;48.204;16.202;2023-10-13T08:29:43;25.70;99.90
62991;DHT22;49084;48.204;16.202;2023-10-13T08:32:41;25.90;99.90
62991;DHT22;49084;48.204;16.202;2023-10-13T08:35:29;26.30;99.70
62991;DHT22;49084;48.204;16.202;2023-10-13T08:37:55;26.80;99.00
62991;DHT22;49084;48.204;16.202;2023-10-13T08:40:24;27.20;97.80
62991;DHT22;49084;48.204;16.202;2023-10-13T08:43:12;27.40;96.70
62991;DHT22;49084;48.204;16.202;2023-10-13T08:45:42;27.60;96.10
62991;DHT22;49084;48.204;16.202;2023-10-13T08:48:10;27.60;95.80
62991;DHT22;49084;48.204;16.202;2023-10-13T08:55:59;28.00;93.40
62991;DHT22;49084;48.204;16.202;2023-10-13T08:58:48;28.10;93.50
62991;DHT22;49084;48.204;16.202;2023-10-13T09:01:28;28.30;92.90
62991;DHT22;49084;48.204;16.202;2023-10-13T09:04:17;28.60;91.30
62991;DHT22;49084;48.204;16.202;2023-10-13T09:06:53;29.10;91.40
62991;DHT22;49084;48.204;16.202;2023-10-13T09:09:26;29.00;90.80
62991;DHT22;49084;48.204;16.202;2023-10-13T09:12:21;28.60;90.40
62991;DHT22;49084;48.204;16.202;2023-10-13T09:15:16;28.30;90.40
62991;DHT22;49084;48.204;16.202;2023-10-13T09:17:47;28.00;90.20
62991;DHT22;49084;48.204;16.202;2023-10-13T09:20:15;27.90;90.00
62991;DHT22;49084;48.204;16.202;2023-10-13T09:22:54;27.70;90.70
62991;DHT22;49084;48.204;16.202;2023-10-13T09:25:31;27.80;89.80
62991;DHT22;49084;48.204;16.202;2023-10-13T09:28:12;28.30;90.20
62991;DHT22;49084;48.204;16.202;2023-10-13T09:33:10;27.70;89.60
62991;DHT22;49084;48.204;16.202;2023-10-13T09:35:45;27.50;87.30
62991;DHT22;49084;48.204;16.202;2023-10-13T09:38:17;27.50;87.40
62991;DHT22;49084;48.204;16.202;2023-10-13T09:40:44;26.80;91.00
62991;DHT22;49084;48.204;16.202;2023-10-13T09:43:17;26.50;89.40
62991;DHT22;49084;48.204;16.202;2023-10-13T09:45:45;26.40;90.30
62991;DHT22;49084;48.204;16.202;2023-10-13T09:48:35;26.90;91.00
62991;DHT22;49084;48.204;16.202;2023-10-13T09:51:02;28.20;88.00
62991;DHT22;49084;48.204;16.202;2023-10-13T09:53:33;29.40;85.00
62991;DHT22;49084;48.204;16.202;2023-10-13T09:56:12;30.00;84.60
62991;DHT22;49084;48.204;16.202;2023-10-13T09:59:06;30.30;76.90
62991;DHT22;49084;48.204;16.202;2023-10-13T10:01:43;30.50;78.50
62991;DHT22;49084;48.204;16.202;2023-10-13T10:04:23;30.80;73.50
62991;DHT22;49084;48.204;16.202;2023-10-13T10:07:06;30.80;74.00
62991;DHT22;49084;48.204;16.202;2023-10-13T10:09:34;31.00;72.60
62991;DHT22;49084;48.204;16.202;2023-10-13T10:17:38;31.60;71.80
62991;DHT22;49084;48.204;16.202;2023-10-13T10:20:05;32.00;72.20
62991;DHT22;49084;48.204;16.202;2023-10-13T10:22:40;32.30;69.50
62991;DHT22;49084;48.204;16.202;2023-10-13T10:25:13;32.60;68.00
62991;DHT22;49084;48.204;16.202;2023-10-13T10:27:59;32.80;65.40
62991;DHT22;49084;48.204;16.202;2023-10-13T10:30:29;33.20;64.20
62991;DHT22;49084;48.204;16.202;2023-10-13T10:32:58;33.50;62.00
62991;DHT22;49084;48.204;16.202;2023-10-13T10:35:33;33.80;61.80
62991;DHT22;49084;48.204;16.202;2023-10-13T10:40:56;34.30;60.20
62991;DHT22;49084;48.204;16.202;2023-10-13T10:45:52;35.10;60.10
62991;DHT22;49084;48.204;16.202;2023-10-13T10:48:18;35.30;56.50
62991;DHT22;49084;48.204;16.202;2023-10-13T10:50:51;35.20;58.40
62991;DHT22;49084;48.204;16.202;2023-10-13T10:53:21;34.90;58.20
62991;DHT22;49084;48.204;16.202;2023-10-13T10:56:14;35.00;55.90
62991;DHT22;49084;48.204;16.202;2023-10-13T10:58:50;35.20;57.50
62991;DHT22;49084;48.204;16.202;2023-10-13T11:01:29;35.40;54.40
62991;DHT22;49084;48.204;16.202;2023-10-13T11:04:09;35.30;54.00
62991;DHT22;49084;48.204;16.202;2023-10-13T11:06:56;35.30;56.70
62991;DHT22;49084;48.204;16.202;2023-10-13T11:09:32;35.40;55.10
62991;DHT22;49084;48.204;16.202;2023-10-13T11:12:12;35.60;51.90
62991;DHT22;49084;48.204;16.202;2023-10-13T11:14:43;36.20;52.00
62991;DHT22;49084;48.204;16.202;2023-10-13T11:17:22;36.70;50.60
62991;DHT22;49084;48.204;16.202;2023-10-13T11:19:52;36.60;50.30
62991;DHT22;49084;48.204;16.202;2023-10-13T11:22:20;36.50;49.20
62991;DHT22;49084;48.204;16.202;2023-10-13T11:25:05;36.30;48.00
62991;DHT22;49084;48.204;16.202;2023-10-13T11:27:41;35.80;49.20
62991;DHT22;49084;48.204;16.202;2023-10-13T11:30:17;36.00;48.60
62991;DHT22;49084;48.204;16.202;2023-10-13T11:33:08;36.30;44.90
62991;DHT22;49084;48.204;16.202;2023-10-13T11:35:35;36.30;46.70
62991;DHT22;49084;48.204;16.202;2023-10-13T11:38:26;36.20;48.50
62991;DHT22;49084;48.204;16.202;2023-10-13T11:41:00;36.30;40.10
62991;DHT22;49084;48.204;16.202;2023-10-13T11:43:25;36.40;44.50
62991;DHT22;49084;48.204;16.202;2023-10-13T11:45:52;36.60;46.00
62991;DHT22;49084;48.204;16.202;2023-10-13T11:48:43;36.40;46.80
62991;DHT22;49084;48.204;16.202;2023-10-13T11:51:14;36.50;41.40
62991;DHT22;49084;48.204;16.202;2023-10-13T11:53:45;36.50;38.20
62991;DHT22;49084;48.204;16.202;2023-10-13T11:56:18;36.60;43.40
62991;DHT22;49084;48.204;16.202;2023-10-13T11:58:46;36.90;41.80
62991;DHT22;49084;48.204;16.202;2023-10-13T12:01:12;37.40;40.60
62991;DHT22;49084;48.204;16.202;2023-10-13T12:03:48;37.20;40.90
62991;DHT22;49084;48.204;16.202;2023-10-13T12:06:34;37.20;41.90
62991;DHT22;49084;48.204;16.202;2023-10-13T12:09:04;36.90;40.30
62991;DHT22;49084;48.204;16.202;2023-10-13T12:11:39;36.70;40.10
62991;DHT22;49084;48.204;16.202;2023-10-13T12:14:11;36.90;42.90
62991;DHT22;49084;48.204;16.202;2023-10-13T12:16:50;36.80;42.30
62991;DHT22;49084;48.204;16.202;2023-10-13T12:19:23;36.20;45.20
62991;DHT22;49084;48.204;16.202;2023-10-13T12:21:53;35.20;44.50
62991;DHT22;49084;48.204;16.202;2023-10-13T12:24:27;34.80;44.50
62991;DHT22;49084;48.204;16.202;2023-10-13T12:27:03;34.10;47.10
62991;DHT22;49084;48.204;16.202;2023-10-13T12:29:47;33.80;45.80
62991;DHT22;49084;48.204;16.202;2023-10-13T12:32:14;33.70;47.00
62991;DHT22;49084;48.204;16.202;2023-10-13T12:34:41;33.60;46.20
62991;DHT22;49084;48.204;16.202;2023-10-13T12:37:32;33.60;45.70
62991;DHT22;49084;48.204;16.202;2023-10-13T12:40:09;34.00;43.40
62991;DHT22;49084;48.204;16.202;2023-10-13T12:42:54;34.20;45.70
62991;DHT22;49084;48.204;16.202;2023-10-13T12:45:39;34.40;47.40
62991;DHT22;49084;48.204;16.202;2023-10-13T12:48:24;34.70;44.60
62991;DHT22;49084;48.204;16.202;2023-10-13T12:51:08;34.80;44.50
62991;DHT22;49084;48.204;16.202;2023-10-13T12:53:53;34.50;43.80
62991;DHT22;49084;48.204;16.202;2023-10-13T12:56:20;34.80;45.70
62991;DHT22;49084;48.204;16.202;2023-10-13T12:58:55;35.00;47.50
62991;DHT22;49084;48.204;16.202;2023-10-13T13:01:25;35.10;43.30
62991;DHT22;49084;48.204;16.202;2023-10-13T13:03:53;35.10;45.50
62991;DHT22;49084;48.204;16.202;2023-10-13T13:06:24;34.70;44.00
62991;DHT22;49084;48.204;16.202;2023-10-13T13:08:56;34.30;43.90
62991;DHT22;49084;48.204;16.202;2023-10-13T13:11:23;33.70;46.50
62991;DHT22;49084;48.204;16.202;2023-10-13T13:13:49;33.20;48.80
62991;DHT22;49084;48.204;16.202;2023-10-13T13:16:15;33.10;48.10
62991;DHT22;49084;48.204;16.202;2023-10-13T13:18:44;32.90;48.20
62991;DHT22;49084;48.204;16.202;2023-10-13T13:21:10;32.90;48.40
62991;DHT22;49084;48.204;16.202;2023-10-13T13:23:45;32.70;49.80
62991;DHT22;49084;48.204;16.202;2023-10-13T13:26:11;32.70;50.50
62991;DHT22;49084;48.204;16.202;2023-10-13T13:28:46;32.60;49.70
62991;DHT22;49084;48.204;16.202;2023-10-13T13:31:16;32.50;50.10
62991;DHT22;49084;48.204;16.202;2023-10-13T13:33:42;32.50;49.40
62991;DHT22;49084;48.204;16.202;2023-10-13T13:36:12;32.30;47.00
62991;DHT22;49084;48.204;16.202;2023-10-13T13:38:42;32.20;49.80
62991;DHT22;49084;48.204;16.202;2023-10-13T13:41:15;31.80;51.10
62991;DHT22;49084;48.204;16.202;2023-10-13T13:43:45;31.10;52.50
62991;DHT22;49084;48.204;16.202;2023-10-13T13:46:26;30.40;47.70
62991;DHT22;49084;48.204;16.202;2023-10-13T13:48:58;29.80;51.90
62991;DHT22;49084;48.204;16.202;2023-10-13T13:51:33;29.60;54.90
62991;DHT22;49084;48.204;16.202;2023-10-13T13:53:59;28.90;57.30
62991;DHT22;49084;48.204;16.202;2023-10-13T13:56:25;28.40;58.50
62991;DHT22;49084;48.204;16.202;2023-10-13T13:58:53;27.90;58.30
62991;DHT22;49084;48.204;16.202;2023-10-13T14:01:20;27.80;59.40
62991;DHT22;49084;48.204;16.202;2023-10-13T14:03:52;27.60;60.50
62991;DHT22;49084;48.204;16.202;2023-10-13T14:06:19;27.30;61.40
62991;DHT22;49084;48.204;16.202;2023-10-13T14:08:58;27.00;62.40
62991;DHT22;49084;48.204;16.202;2023-10-13T14:11:32;26.80;62.90
62991;DHT22;49084;48.204;16.202;2023-10-13T14:14:07;26.60;63.10
62991;DHT22;49084;48.204;16.202;2023-10-13T14:16:51;26.50;64.30
62991;DHT22;49084;48.204;16.202;2023-10-13T14:19:17;26.40;63.10
62991;DHT22;49084;48.204;16.202;2023-10-13T14:21:53;26.40;64.70
62991;DHT22;49084;48.204;16.202;2023-10-13T14:24:22;26.60;64.50
62991;DHT22;49084;48.204;16.202;2023-10-13T14:26:57;26.70;63.50
62991;DHT22;49084;48.204;16.202;2023-10-13T14:29:36;26.90;62.60
62991;DHT22;49084;48.204;16.202;2023-10-13T14:32:11;26.80;63.40
62991;DHT22;49084;48.204;16.202;2023-10-13T14:34:43;26.40;64.10
62991;DHT22;49084;48.204;16.202;2023-10-13T14:37:09;26.20;63.50
62991;DHT22;49084;48.204;16.202;2023-10-13T14:39:41;26.00;64.50
62991;DHT22;49084;48.204;16.202;2023-10-13T14:42:07;25.80;66.00
62991;DHT22;49084;48.204;16.202;2023-10-13T14:44:33;25.60;66.00
62991;DHT22;49084;48.204;16.202;2023-10-13T14:47:00;25.40;68.20
62991;DHT22;49084;48.204;16.202;2023-10-13T14:49:26;25.10;69.00
62991;DHT22;49084;48.204;16.202;2023-10-13T14:51:51;25.00;68.90
62991;DHT22;49084;48.204;16.202;2023-10-13T14:54:23;25.00;69.40
62991;DHT22;49084;48.204;16.202;2023-10-13T14:57:01;25.70;70.40
62991;DHT22;49084;48.204;16.202;2023-10-13T14:59:28;25.10;69.30
62991;DHT22;49084;48.204;16.202;2023-10-13T15:02:01;25.10;69.70
62991;DHT22;49084;48.204;16.202;2023-10-13T15:04:27;24.90;70.40
62991;DHT22;49084;48.204;16.202;2023-10-13T15:06:54;24.60;70.80
62991;DHT22;49084;48.204;16.202;2023-10-13T15:09:20;24.20;71.40
62991;DHT22;49084;48.204;16.202;2023-10-13T15:11:49;23.90;73.50
62991;DHT22;49084;48.204;16.202;2023-10-13T15:14:19;23.70;71.80
62991;DHT22;49084;48.204;16.202;2023-10-13T15:16:51;23.50;74.00
62991;DHT22;49084;48.204;16.202;2023-10-13T15:19:20;23.30;77.20
62991;DHT22;49084;48.204;16.202;2023-10-13T15:21:46;23.00;75.40
62991;DHT22;49084;48.204;16.202;2023-10-13T15:24:15;22.80;78.20
62991;DHT22;49084;48.204;16.202;2023-10-13T15:26:51;22.50;79.90
62991;DHT22;49084;48.204;16.202;2023-10-13T15:29:22;22.30;81.10
62991;DHT22;49084;48.204;16.202;2023-10-13T15:31:52;22.10;83.20
62991;DHT22;49084;48.204;16.202;2023-10-13T15:34:23;21.90;86.10
62991;DHT22;49084;48.204;16.202;2023-10-13T15:36:51;21.70;89.00
62991;DHT22;49084;48.204;16.202;2023-10-13T15:39:18;21.50;91.00
62991;DHT22;49084;48.204;16.202;2023-10-13T15:41:49;21.40;91.90
62991;DHT22;49084;48.204;16.202;2023-10-13T15:44:18;21.30;92.80
62991;DHT22;49084;48.204;16.202;2023-10-13T15:46:45;21.10;94.60
62991;DHT22;49084;48.204;16.202;2023-10-13T15:49:14;21.00;95.90
62991;DHT22;49084;48.204;16.202;2023-10-13T15:51:42;20.80;97.80
62991;DHT22;49084;48.204;16.202;2023-10-13T15:54:08;20.70;99.00
62991;DHT22;49084;48.204;16.202;2023-10-13T15:56:46;20.50;99.90
62991;DHT22;49084;48.204;16.202;2023-10-13T15:59:13;20.40;99.90
62991;DHT22;49084;48.204;16.202;2023-10-13T16:01:39;20.20;99.90
62991;DHT22;49084;48.204;16.202;2023-10-13T16:04:09;20.10;99.90
62991;DHT22;49084;48.204;16.202;2023-10-13T16:06:46;20.00;99.90
62991;DHT22;49084;48.204;16.202;2023-10-13T16:09:12;19.90;99.90
62991;DHT22;49084;48.204;16.202;2023-10-13T16:11:41;19.80;99.90
62991;DHT22;49084;48.204;16.202;2023-10-13T16:14:08;19.60;99.90
62991;DHT22;49084;48.204;16.202;2023-10-13T16:16:41;19.50;99.90
62991;DHT22;49084;48.204;16.202;2023-10-13T16:19:10;19.40;99.90
62991;DHT22;49084;48.204;16.202;2023-10-13T16:21:35;19.20;99.90
62991;DHT22;49084;48.204;16.202;2023-10-13T16:24:05;19.00;99.90